ホニアラ の空港の天気 - METARとTAF

ホニアラ国際空港 ( AGGH / HIR ) - ソロモン諸島 ガダルカナル島ホニアラ
飛行場実況気象(Metar)
観測時間01/29 19:00 SBT (01/29 08:00 UTC)
風向・風速西 1m/s
視程10km以上
天気現象
少しの雲 雲底高度 490m
少しの雲 雲底高度 520m
全天の8割程度の雲 雲底高度 3050m
気温26℃
湿度89%
気圧1006hPa
METARAGGH 290800Z 27002KT 9999 FEW016 FEW017CB BKN100 26/24 Q1006
過去の天気等 Google飛行場航空写真 Wunderground天気予報

過去48時間のMETAR

飛行場予報(TAF)
発表時間: 1/29 16:05 SBT (1/29 05:05 UTC)
予報対象時間: 29日17時 SBT ~ 30日17時 SBT
風向・風速北西 8m/s
視程10km以上
天気現象弱いしゅう雨
全天の4割程度の雲 雲底高度 490m
全天の4割程度の雲 雲底高度 760m
全天の8割程度の雲 雲底高度 3050m
TAF AGGH 290505Z 2906/3006 32015KT 9999 -SHRA SCT016 SCT025 BKN100
PROB40 INTER 2907/2915 4000 TSSH FEW008 FEW018CB BKN025 T 28 26 24 24 Q 1004 1006 1007 1005